createdAt,value
2023-05-14T00:01:25.054Z,75.21
2023-05-14T00:04:27.600Z,75.43
2023-05-14T00:07:31.011Z,74.53
2023-05-14T00:10:33.793Z,74.47
2023-05-14T00:13:36.462Z,73.96
2023-05-14T00:16:38.959Z,75.12
2023-05-14T00:19:42.152Z,74.64
2023-05-14T00:22:44.722Z,73.89
2023-05-14T00:25:47.209Z,74.58
2023-05-14T00:28:49.695Z,73.88
2023-05-14T00:31:52.766Z,73.78
2023-05-14T00:34:55.726Z,74.20
2023-05-14T00:37:58.479Z,73.69
2023-05-14T00:41:01.212Z,74.11
2023-05-14T00:44:03.838Z,73.54
2023-05-14T00:47:06.918Z,74.34
2023-05-14T00:50:09.869Z,73.93
2023-05-14T00:53:12.589Z,74.25
2023-05-14T00:56:15.676Z,74.37
2023-05-14T00:59:18.671Z,74.06
2023-05-14T01:02:21.304Z,73.90
2023-05-14T01:05:23.955Z,73.81
2023-05-14T01:08:44.464Z,73.93
2023-05-14T01:12:17.228Z,75.00
2023-05-14T01:15:28.690Z,75.30
2023-05-14T01:18:31.339Z,75.87
2023-05-14T01:21:36.553Z,75.96
2023-05-14T01:24:39.142Z,76.13
2023-05-14T01:28:01.259Z,76.74
2023-05-14T01:31:17.525Z,75.80
2023-05-14T01:34:21.433Z,76.65
2023-05-14T01:37:24.098Z,77.01
2023-05-14T01:40:26.700Z,77.17
2023-05-14T01:43:29.522Z,76.96
2023-05-14T01:46:35.818Z,77.36
2023-05-14T01:49:38.372Z,77.58
2023-05-14T01:52:40.934Z,76.74
2023-05-14T01:55:43.457Z,77.20
2023-05-14T01:58:45.900Z,77.05
2023-05-14T02:01:48.444Z,76.82
2023-05-14T02:04:51.289Z,76.69
2023-05-14T02:07:53.646Z,76.41
2023-05-14T02:10:56.138Z,76.69
2023-05-14T02:14:00.775Z,76.83
2023-05-14T02:17:03.622Z,76.59
2023-05-14T02:20:07.135Z,76.82
2023-05-14T02:23:09.759Z,75.87
2023-05-14T02:26:12.761Z,76.30
2023-05-14T02:29:15.501Z,75.62
2023-05-14T02:32:18.259Z,75.87
2023-05-14T02:35:21.030Z,75.34
2023-05-14T02:38:23.855Z,75.75
2023-05-14T02:41:26.388Z,75.38
2023-05-14T02:44:29.181Z,75.56
2023-05-14T02:47:31.707Z,75.21
2023-05-14T02:50:34.285Z,74.87
2023-05-14T02:53:37.069Z,74.66
2023-05-14T02:56:39.396Z,74.59
2023-05-14T02:59:41.721Z,76.03
2023-05-14T03:02:44.820Z,74.76
2023-05-14T03:05:47.934Z,75.21
2023-05-14T03:08:50.679Z,74.93
2023-05-14T03:11:53.314Z,75.54
2023-05-14T03:14:55.983Z,74.85
2023-05-14T03:17:58.832Z,75.06
2023-05-14T03:21:01.455Z,74.96
2023-05-14T03:24:03.984Z,75.80
2023-05-14T03:27:06.597Z,75.58
2023-05-14T03:30:09.735Z,75.50
2023-05-14T03:33:12.566Z,75.02
2023-05-14T03:36:14.933Z,74.91
2023-05-14T03:39:20.303Z,74.19
2023-05-14T03:42:22.730Z,74.82
2023-05-14T03:45:25.189Z,74.76
2023-05-14T03:48:27.811Z,74.43
2023-05-14T03:51:31.865Z,73.82
2023-05-14T03:54:34.423Z,74.28
2023-05-14T03:57:37.046Z,74.59
2023-05-14T04:00:41.313Z,74.05
2023-05-14T04:03:44.160Z,74.16
2023-05-14T04:06:46.722Z,73.16
2023-05-14T04:09:49.312Z,73.33
2023-05-14T04:12:51.913Z,74.32
2023-05-14T04:15:54.482Z,73.70
2023-05-14T04:18:58.117Z,73.80
2023-05-14T04:22:00.738Z,74.01
2023-05-14T04:25:03.337Z,73.90
2023-05-14T04:28:06.302Z,73.13
2023-05-14T04:31:08.711Z,73.83
2023-05-14T04:34:11.173Z,73.35
2023-05-14T04:37:14.105Z,73.07
2023-05-14T04:40:21.946Z,71.78
2023-05-14T04:43:25.648Z,71.77
2023-05-14T04:46:28.877Z,71.32
2023-05-14T04:49:32.029Z,71.91
2023-05-14T04:52:34.560Z,71.68
2023-05-14T04:55:37.064Z,72.16
2023-05-14T04:58:39.567Z,71.59
2023-05-14T05:01:42.007Z,71.80
2023-05-14T05:04:44.658Z,71.66
2023-05-14T05:07:47.096Z,72.16
2023-05-14T05:10:49.551Z,71.35
2023-05-14T05:13:51.963Z,72.13
2023-05-14T05:16:54.848Z,71.25
2023-05-14T05:19:57.393Z,72.11
2023-05-14T05:22:59.949Z,72.73
2023-05-14T05:26:02.608Z,71.54
2023-05-14T05:29:05.587Z,72.01
2023-05-14T05:32:08.269Z,72.22
2023-05-14T05:35:10.769Z,72.31
2023-05-14T05:38:15.103Z,71.50
2023-05-14T05:41:17.617Z,71.21
2023-05-14T05:44:21.374Z,71.45
2023-05-14T05:47:24.043Z,70.70
2023-05-14T05:50:26.566Z,71.79
2023-05-14T05:53:29.097Z,71.70
2023-05-14T05:56:31.920Z,71.02
2023-05-14T05:59:34.433Z,71.54
2023-05-14T06:02:36.902Z,71.23
2023-05-14T06:05:39.761Z,71.68
2023-05-14T06:08:42.318Z,71.95
2023-05-14T06:11:44.851Z,72.19
2023-05-14T06:14:47.320Z,72.79
2023-05-14T06:17:49.816Z,72.35
2023-05-14T06:20:52.240Z,72.44
2023-05-14T06:23:54.706Z,72.81
2023-05-14T06:26:59.169Z,73.32
2023-05-14T06:30:01.612Z,72.65
2023-05-14T06:33:04.225Z,72.20
2023-05-14T06:36:07.881Z,73.12
2023-05-14T06:39:10.386Z,72.28
2023-05-14T06:42:13.062Z,73.43
2023-05-14T06:45:16.371Z,72.61
2023-05-14T06:48:19.360Z,73.28
2023-05-14T06:51:22.189Z,72.55
2023-05-14T06:54:24.850Z,72.33
2023-05-14T06:57:27.492Z,72.44
2023-05-14T07:00:30.679Z,71.36
2023-05-14T07:03:33.177Z,70.91
2023-05-14T07:06:35.758Z,70.99
2023-05-14T07:09:38.467Z,70.79
2023-05-14T07:12:40.942Z,70.46
2023-05-14T07:15:43.932Z,69.94
2023-05-14T07:18:46.574Z,70.31
2023-05-14T07:21:51.730Z,69.13
2023-05-14T07:24:54.251Z,68.89
2023-05-14T07:27:56.725Z,68.88
2023-05-14T07:30:59.427Z,68.82
2023-05-14T07:34:01.904Z,69.40
2023-05-14T07:37:04.538Z,68.75
2023-05-14T07:40:07.613Z,69.32
2023-05-14T07:43:10.680Z,68.67
2023-05-14T07:46:12.862Z,69.56
2023-05-14T07:49:15.836Z,67.08
2023-05-14T07:52:18.249Z,68.97
2023-05-14T07:55:21.034Z,68.61
2023-05-14T07:58:23.729Z,69.17
2023-05-14T08:01:26.482Z,69.65
2023-05-14T08:04:29.091Z,70.43
2023-05-14T08:07:34.497Z,70.02
2023-05-14T08:10:37.004Z,70.60
2023-05-14T08:13:39.765Z,70.45
2023-05-14T08:16:42.308Z,70.21
2023-05-14T08:19:44.880Z,70.28
2023-05-14T08:22:47.377Z,70.93
2023-05-14T08:25:49.807Z,70.98
2023-05-14T08:28:56.200Z,72.38
2023-05-14T08:32:00.311Z,72.42
2023-05-14T08:35:06.906Z,70.46
2023-05-14T08:38:09.402Z,72.18
2023-05-14T08:41:12.117Z,71.14
2023-05-14T08:44:36.718Z,70.45
2023-05-14T08:47:39.391Z,71.37
2023-05-14T08:50:41.811Z,71.86
2023-05-14T08:53:44.722Z,71.78
2023-05-14T08:56:47.069Z,71.41
2023-05-14T08:59:49.398Z,72.21
2023-05-14T09:02:51.911Z,70.77
2023-05-14T09:05:54.381Z,71.07
2023-05-14T09:08:57.147Z,71.85
2023-05-14T09:11:59.627Z,72.17
2023-05-14T09:15:02.216Z,71.82
2023-05-14T09:18:05.960Z,72.42
2023-05-14T09:21:08.475Z,70.79
2023-05-14T09:24:13.722Z,71.61
2023-05-14T09:27:20.041Z,71.97
2023-05-14T09:30:22.785Z,72.32
2023-05-14T09:33:28.791Z,72.63
2023-05-14T09:36:31.886Z,73.50
2023-05-14T09:39:36.242Z,73.38
2023-05-14T09:42:38.829Z,72.85
2023-05-14T09:45:43.760Z,73.82
2023-05-14T09:48:46.362Z,73.78
2023-05-14T09:51:49.188Z,73.20
2023-05-14T09:54:52.493Z,72.25
2023-05-14T09:57:54.965Z,72.92
2023-05-14T10:00:58.058Z,73.35
2023-05-14T10:04:01.465Z,73.68
2023-05-14T10:07:04.136Z,73.92
2023-05-14T10:10:07.814Z,73.52
2023-05-14T10:13:14.854Z,73.97
2023-05-14T10:16:20.787Z,73.20
2023-05-14T10:19:24.379Z,73.39
2023-05-14T10:22:31.052Z,73.96
2023-05-14T10:25:34.973Z,73.66
2023-05-14T10:28:37.561Z,73.97
2023-05-14T10:31:58.124Z,73.11
2023-05-14T10:35:01.769Z,73.89
2023-05-14T10:38:08.628Z,73.17
2023-05-14T10:41:18.156Z,73.52
2023-05-14T10:44:20.624Z,74.25
2023-05-14T10:47:23.086Z,74.66
2023-05-14T10:50:25.772Z,72.82
2023-05-14T10:53:37.876Z,73.08
2023-05-14T10:56:40.247Z,72.79
2023-05-14T10:59:43.456Z,73.01
2023-05-14T11:02:46.994Z,72.73
2023-05-14T11:05:49.798Z,72.94
2023-05-14T11:08:52.940Z,72.55
2023-05-14T11:11:55.540Z,73.11
2023-05-14T11:14:59.396Z,73.08
2023-05-14T11:18:02.259Z,74.03
2023-05-14T11:21:05.136Z,72.75
2023-05-14T11:24:07.894Z,73.69
2023-05-14T11:27:10.999Z,74.49
2023-05-14T11:30:18.126Z,74.80
2023-05-14T11:33:21.067Z,75.23
2023-05-14T11:36:23.553Z,75.43
2023-05-14T11:39:26.017Z,75.48
2023-05-14T11:42:28.510Z,75.81
2023-05-14T11:45:33.208Z,75.54
2023-05-14T11:48:35.803Z,76.08
2023-05-14T11:51:38.180Z,76.95
2023-05-14T11:54:41.312Z,76.80
2023-05-14T11:57:44.060Z,76.39
2023-05-14T12:00:46.745Z,76.08
2023-05-14T12:03:49.320Z,77.59
2023-05-14T12:06:52.262Z,76.86
2023-05-14T12:09:54.699Z,77.85
2023-05-14T12:12:57.146Z,78.02
2023-05-14T12:16:02.064Z,77.26
2023-05-14T12:19:04.745Z,76.89
2023-05-14T12:22:07.695Z,79.31
2023-05-14T12:25:16.015Z,79.68
2023-05-14T12:28:18.852Z,79.46
2023-05-14T12:31:27.825Z,80.03
2023-05-14T12:34:30.145Z,81.61
2023-05-14T12:37:33.353Z,81.38
2023-05-14T12:40:36.553Z,81.10
2023-05-14T12:43:42.749Z,82.03
2023-05-14T12:46:45.393Z,82.06
2023-05-14T12:49:48.516Z,81.66
2023-05-14T12:52:50.981Z,81.42
2023-05-14T12:55:53.759Z,81.43
2023-05-14T12:58:56.585Z,81.59
2023-05-14T13:01:58.975Z,81.92
2023-05-14T13:05:03.817Z,82.80
2023-05-14T13:08:06.338Z,82.75
2023-05-14T13:11:08.959Z,83.01
2023-05-14T13:14:14.235Z,82.66
2023-05-14T13:17:16.772Z,82.36
2023-05-14T13:20:19.371Z,82.60
2023-05-14T13:23:21.890Z,82.57
2023-05-14T13:26:26.616Z,83.12
2023-05-14T13:29:31.787Z,83.27
2023-05-14T13:32:34.443Z,83.46
2023-05-14T13:35:36.967Z,83.19
2023-05-14T13:38:39.390Z,83.82
2023-05-14T13:41:42.117Z,83.99
2023-05-14T13:44:44.985Z,84.07
2023-05-14T13:47:48.780Z,84.15
2023-05-14T13:50:52.263Z,83.82
2023-05-14T13:57:02.094Z,85.45
2023-05-14T14:00:05.470Z,85.24
2023-05-14T14:03:08.347Z,85.82
2023-05-14T14:06:10.905Z,85.75
2023-05-14T14:09:13.905Z,86.00
2023-05-14T14:12:16.421Z,86.24
2023-05-14T14:15:19.087Z,86.08
2023-05-14T14:18:21.623Z,86.77
2023-05-14T14:21:24.177Z,86.54
2023-05-14T14:24:26.595Z,86.65
2023-05-14T14:27:31.214Z,86.63
2023-05-14T14:30:33.765Z,86.88
2023-05-14T14:33:36.167Z,85.99
2023-05-14T14:36:38.602Z,85.67
2023-05-14T14:39:41.019Z,85.27
2023-05-14T14:42:43.575Z,85.66
2023-05-14T14:45:48.882Z,85.60
2023-05-14T14:48:51.753Z,86.02
2023-05-14T14:51:54.444Z,86.04
2023-05-14T14:54:57.060Z,86.11
2023-05-14T14:57:59.443Z,86.32
2023-05-14T15:01:02.149Z,85.73
2023-05-14T15:04:04.804Z,86.35
2023-05-14T15:07:07.264Z,86.71
2023-05-14T15:10:09.923Z,86.68
2023-05-14T15:13:12.615Z,86.91
2023-05-14T15:16:15.676Z,86.46
2023-05-14T15:19:18.132Z,86.47
2023-05-14T15:22:20.508Z,86.04
2023-05-14T15:25:23.737Z,86.15
2023-05-14T15:28:26.482Z,85.95
2023-05-14T15:31:29.160Z,86.71
2023-05-14T15:34:33.011Z,86.72
2023-05-14T15:37:40.382Z,86.87
2023-05-14T15:40:42.936Z,86.70
2023-05-14T15:43:45.475Z,87.14
2023-05-14T15:46:47.998Z,87.52
2023-05-14T15:49:50.561Z,86.69
2023-05-14T15:52:55.253Z,87.12
2023-05-14T15:55:57.630Z,87.88
2023-05-14T15:59:00.045Z,87.56
2023-05-14T16:02:02.553Z,87.03
2023-05-14T16:05:05.751Z,87.19
2023-05-14T16:08:08.336Z,86.79
2023-05-14T16:11:10.686Z,86.99
2023-05-14T16:14:13.119Z,87.23
2023-05-14T16:17:15.610Z,87.82
2023-05-14T16:20:18.200Z,86.88
2023-05-14T16:23:20.578Z,87.47
2023-05-14T16:26:23.284Z,87.37
2023-05-14T16:29:25.715Z,87.28
2023-05-14T16:32:28.346Z,87.07
2023-05-14T16:35:30.905Z,87.36
2023-05-14T16:38:33.486Z,87.63
2023-05-14T16:41:36.229Z,87.98
2023-05-14T16:44:38.973Z,87.34
2023-05-14T16:47:41.546Z,87.35
2023-05-14T16:50:44.472Z,87.82
2023-05-14T16:53:46.938Z,87.25
2023-05-14T16:56:53.607Z,87.76
2023-05-14T16:59:56.906Z,87.84
2023-05-14T17:03:02.472Z,88.16
2023-05-14T17:06:05.116Z,87.77
2023-05-14T17:09:07.787Z,88.10
2023-05-14T17:12:11.242Z,88.37
2023-05-14T17:15:14.129Z,88.35
2023-05-14T17:18:16.662Z,88.06
2023-05-14T17:21:22.258Z,88.69
2023-05-14T17:24:24.935Z,88.91
2023-05-14T17:27:29.326Z,88.80
2023-05-14T17:30:31.802Z,88.66
2023-05-14T17:33:34.770Z,89.08
2023-05-14T17:36:37.302Z,88.38
2023-05-14T17:39:39.698Z,88.32
2023-05-14T17:42:42.190Z,88.42
2023-05-14T17:45:53.995Z,89.21
2023-05-14T17:48:58.449Z,89.07
2023-05-14T17:52:00.976Z,89.18
2023-05-14T17:55:04.108Z,88.66
2023-05-14T17:58:06.312Z,88.10
2023-05-14T18:01:08.807Z,88.67
2023-05-14T18:04:11.488Z,88.31
2023-05-14T18:07:14.121Z,88.68
2023-05-14T18:10:16.536Z,88.44
2023-05-14T18:13:19.002Z,88.59
2023-05-14T18:16:21.840Z,88.66
2023-05-14T18:19:25.074Z,89.38
2023-05-14T18:22:27.406Z,89.37
2023-05-14T18:25:29.917Z,88.93
2023-05-14T18:28:32.273Z,89.87
2023-05-14T18:31:35.031Z,89.52
2023-05-14T18:34:37.607Z,89.82
2023-05-14T18:37:40.110Z,89.87
2023-05-14T18:40:42.720Z,89.54
2023-05-14T18:43:45.359Z,89.56
2023-05-14T18:46:47.808Z,89.61
2023-05-14T18:49:54.887Z,89.94
2023-05-14T18:52:57.573Z,89.96
2023-05-14T18:56:00.251Z,89.70
2023-05-14T18:59:02.848Z,90.57
2023-05-14T19:02:05.756Z,89.67
2023-05-14T19:05:08.498Z,89.54
2023-05-14T19:08:11.092Z,89.77
2023-05-14T19:11:14.936Z,90.22
2023-05-14T19:14:17.329Z,90.65
2023-05-14T19:17:20.611Z,90.50
2023-05-14T19:20:23.295Z,90.06
2023-05-14T19:23:25.774Z,89.74
2023-05-14T19:26:28.246Z,90.20
2023-05-14T19:29:32.641Z,90.26
2023-05-14T19:32:37.411Z,89.80
2023-05-14T19:35:39.972Z,90.16
2023-05-14T19:38:42.734Z,90.22
2023-05-14T19:41:45.332Z,90.48
2023-05-14T19:44:47.768Z,90.25
2023-05-14T19:47:50.286Z,90.06
2023-05-14T19:50:52.830Z,90.21
2023-05-14T19:53:55.356Z,90.31
2023-05-14T19:56:57.831Z,89.83
2023-05-14T20:00:00.381Z,90.42
2023-05-14T20:03:03.831Z,90.11
2023-05-14T20:06:07.415Z,90.61
2023-05-14T20:09:10.204Z,89.51
2023-05-14T20:12:13.339Z,90.27
2023-05-14T20:15:15.792Z,90.29
2023-05-14T20:18:18.335Z,90.06
2023-05-14T20:21:20.730Z,90.07
2023-05-14T20:24:23.235Z,90.20
2023-05-14T20:27:25.760Z,90.42
2023-05-14T20:30:28.498Z,90.11
2023-05-14T20:33:30.961Z,90.08
2023-05-14T20:36:33.486Z,90.13
2023-05-14T20:39:36.094Z,89.49
2023-05-14T20:42:38.775Z,89.50
2023-05-14T20:45:41.776Z,89.85
2023-05-14T20:48:44.291Z,89.51
2023-05-14T20:51:46.730Z,90.09
2023-05-14T20:54:49.210Z,90.10
2023-05-14T20:57:53.655Z,90.41
2023-05-14T21:00:57.977Z,90.35
2023-05-14T21:04:01.250Z,90.33
2023-05-14T21:07:04.495Z,90.63
2023-05-14T21:10:07.880Z,90.58
2023-05-14T21:13:10.297Z,90.22
2023-05-14T21:16:12.875Z,90.61
2023-05-14T21:19:15.743Z,90.49
2023-05-14T21:22:18.117Z,90.76
2023-05-14T21:25:20.750Z,90.78
2023-05-14T21:28:23.192Z,90.06
2023-05-14T21:31:25.638Z,90.43
2023-05-14T21:34:29.788Z,90.48
2023-05-14T21:37:33.807Z,90.36
2023-05-14T21:40:36.652Z,90.58
2023-05-14T21:43:40.823Z,90.31
2023-05-14T21:46:43.344Z,90.54
2023-05-14T21:49:45.746Z,90.60
2023-05-14T21:52:48.200Z,90.60
2023-05-14T21:55:50.646Z,89.95
2023-05-14T21:58:55.548Z,89.84
2023-05-14T22:02:06.735Z,90.30
2023-05-14T22:05:10.061Z,90.05
2023-05-14T22:08:13.346Z,90.35
2023-05-14T22:11:18.822Z,90.26
2023-05-14T22:14:21.433Z,90.66
2023-05-14T22:17:23.907Z,90.67
2023-05-14T22:20:26.400Z,89.96
2023-05-14T22:23:28.874Z,90.02
2023-05-14T22:26:31.491Z,89.88
2023-05-14T22:29:34.588Z,89.76
2023-05-14T22:32:38.403Z,90.50
2023-05-14T22:35:41.063Z,90.13
2023-05-14T22:38:43.925Z,90.02
2023-05-14T22:41:46.662Z,90.24
2023-05-14T22:44:49.479Z,89.87
2023-05-14T22:47:51.915Z,89.89
2023-05-14T22:50:54.428Z,90.27
2023-05-14T22:53:57.167Z,89.91
2023-05-14T22:56:59.588Z,90.29
2023-05-14T23:00:02.295Z,90.18
2023-05-14T23:03:05.064Z,89.59
2023-05-14T23:06:07.845Z,89.77
2023-05-14T23:09:10.682Z,90.03
2023-05-14T23:12:12.953Z,90.18
2023-05-14T23:15:15.900Z,90.35
2023-05-14T23:18:19.022Z,90.03
2023-05-14T23:21:21.654Z,89.23
2023-05-14T23:24:24.132Z,89.67
2023-05-14T23:27:27.290Z,89.74
2023-05-14T23:30:29.899Z,89.52
2023-05-14T23:33:32.429Z,89.45
2023-05-14T23:36:35.786Z,89.44
2023-05-14T23:39:38.387Z,89.33
2023-05-14T23:42:41.325Z,88.88
2023-05-14T23:45:43.707Z,89.18
2023-05-14T23:48:46.230Z,88.90
2023-05-14T23:51:48.678Z,89.47
2023-05-14T23:54:51.115Z,89.51
2023-05-14T23:57:53.621Z,89.41
